Terminal Aerodrome Forecast
Issued by NWS Missoula, MT

Home | Current Version | Previous Version | Text Only | Print | Product List | Glossary On
Versions: 1 2 3 4 5 6 7 8 9 10 11 12 13 14 15
873
FTUS45 KMSO 230520
TAFGPI
TAF
KGPI 230520Z 2306/2406 35007KT P6SM VCFG SCT002 SCT070
     FM231000 01005KT P6SM VCFG SCT001
     FM231800 19011KT P6SM BKN060=

USA.gov is the U.S. government's official web portal to all federal, state and local government web resources and services.